sensor_id;sensor_type;location;lat;lon;timestamp;P1;P2;P0
57451;PMS7003;54295;51.224;-0.164;2022-09-09T00:02:10;3;3;
57451;PMS7003;54295;51.224;-0.164;2022-09-09T00:04:45;2;2;
57451;PMS7003;54295;51.224;-0.164;2022-09-09T00:07:25;5;4;
57451;PMS7003;54295;51.224;-0.164;2022-09-09T00:10:05;4;3;
57451;PMS7003;54295;51.224;-0.164;2022-09-09T00:12:43;2;2;
57451;PMS7003;54295;51.224;-0.164;2022-09-09T00:15:20;2;2;
57451;PMS7003;54295;51.224;-0.164;2022-09-09T00:17:53;3;3;
57451;PMS7003;54295;51.224;-0.164;2022-09-09T00:20:25;4;3;
57451;PMS7003;54295;51.224;-0.164;2022-09-09T00:22:59;3;3;
57451;PMS7003;54295;51.224;-0.164;2022-09-09T00:25:40;4;2;
57451;PMS7003;54295;51.224;-0.164;2022-09-09T00:28:16;2;2;
57451;PMS7003;54295;51.224;-0.164;2022-09-09T00:30:46;2;2;
57451;PMS7003;54295;51.224;-0.164;2022-09-09T00:33:14;2;2;
57451;PMS7003;54295;51.224;-0.164;2022-09-09T00:35:44;5;3;
57451;PMS7003;54295;51.224;-0.164;2022-09-09T00:38:14;3;3;
57451;PMS7003;54295;51.224;-0.164;2022-09-09T00:40:46;3;3;
57451;PMS7003;54295;51.224;-0.164;2022-09-09T00:43:21;4;3;
57451;PMS7003;54295;51.224;-0.164;2022-09-09T00:45:57;4;3;
57451;PMS7003;54295;51.224;-0.164;2022-09-09T00:48:38;3;3;
57451;PMS7003;54295;51.224;-0.164;2022-09-09T00:51:15;2;2;
57451;PMS7003;54295;51.224;-0.164;2022-09-09T00:53:56;3;3;
57451;PMS7003;54295;51.224;-0.164;2022-09-09T00:56:37;2;1;
57451;PMS7003;54295;51.224;-0.164;2022-09-09T00:59:16;4;4;
57451;PMS7003;54295;51.224;-0.164;2022-09-09T01:01:53;3;3;
57451;PMS7003;54295;51.224;-0.164;2022-09-09T01:04:22;2;2;
57451;PMS7003;54295;51.224;-0.164;2022-09-09T01:06:55;3;3;
57451;PMS7003;54295;51.224;-0.164;2022-09-09T01:09:31;5;5;
57451;PMS7003;54295;51.224;-0.164;2022-09-09T01:12:07;3;2;
57451;PMS7003;54295;51.224;-0.164;2022-09-09T01:14:41;3;3;
57451;PMS7003;54295;51.224;-0.164;2022-09-09T01:17:14;1;1;
57451;PMS7003;54295;51.224;-0.164;2022-09-09T01:19:49;3;3;
57451;PMS7003;54295;51.224;-0.164;2022-09-09T01:22:28;4;3;
57451;PMS7003;54295;51.224;-0.164;2022-09-09T01:25:08;3;2;
57451;PMS7003;54295;51.224;-0.164;2022-09-09T01:27:43;3;3;
57451;PMS7003;54295;51.224;-0.164;2022-09-09T01:30:14;3;3;
57451;PMS7003;54295;51.224;-0.164;2022-09-09T01:32:44;4;4;
57451;PMS7003;54295;51.224;-0.164;2022-09-09T01:35:15;3;3;
57451;PMS7003;54295;51.224;-0.164;2022-09-09T01:37:52;2;2;
57451;PMS7003;54295;51.224;-0.164;2022-09-09T01:40:19;4;4;
57451;PMS7003;54295;51.224;-0.164;2022-09-09T01:42:47;3;3;
57451;PMS7003;54295;51.224;-0.164;2022-09-09T01:45:14;3;3;
57451;PMS7003;54295;51.224;-0.164;2022-09-09T01:47:41;3;2;
57451;PMS7003;54295;51.224;-0.164;2022-09-09T01:50:09;3;3;
57451;PMS7003;54295;51.224;-0.164;2022-09-09T01:52:38;2;2;
57451;PMS7003;54295;51.224;-0.164;2022-09-09T01:55:05;4;3;
57451;PMS7003;54295;51.224;-0.164;2022-09-09T01:57:35;5;5;
57451;PMS7003;54295;51.224;-0.164;2022-09-09T02:00:10;5;4;
57451;PMS7003;54295;51.224;-0.164;2022-09-09T02:02:41;4;3;
57451;PMS7003;54295;51.224;-0.164;2022-09-09T02:05:21;3;3;
57451;PMS7003;54295;51.224;-0.164;2022-09-09T02:07:55;5;5;
57451;PMS7003;54295;51.224;-0.164;2022-09-09T02:10:28;6;5;
57451;PMS7003;54295;51.224;-0.164;2022-09-09T02:13:00;3;3;
57451;PMS7003;54295;51.224;-0.164;2022-09-09T02:15:32;2;2;
57451;PMS7003;54295;51.224;-0.164;2022-09-09T02:18:08;3;2;
57451;PMS7003;54295;51.224;-0.164;2022-09-09T02:20:38;5;5;
57451;PMS7003;54295;51.224;-0.164;2022-09-09T02:23:07;5;4;
57451;PMS7003;54295;51.224;-0.164;2022-09-09T02:25:35;3;3;
57451;PMS7003;54295;51.224;-0.164;2022-09-09T02:28:03;5;4;
57451;PMS7003;54295;51.224;-0.164;2022-09-09T02:30:33;2;2;
57451;PMS7003;54295;51.224;-0.164;2022-09-09T02:33:04;5;4;
57451;PMS7003;54295;51.224;-0.164;2022-09-09T02:35:32;3;3;
57451;PMS7003;54295;51.224;-0.164;2022-09-09T02:38:02;3;3;
57451;PMS7003;54295;51.224;-0.164;2022-09-09T02:40:33;4;2;
57451;PMS7003;54295;51.224;-0.164;2022-09-09T02:43:01;4;4;
57451;PMS7003;54295;51.224;-0.164;2022-09-09T02:45:31;4;4;
57451;PMS7003;54295;51.224;-0.164;2022-09-09T02:48:04;4;4;
57451;PMS7003;54295;51.224;-0.164;2022-09-09T02:50:39;3;2;
57451;PMS7003;54295;51.224;-0.164;2022-09-09T02:53:17;4;4;
57451;PMS7003;54295;51.224;-0.164;2022-09-09T02:55:47;2;1;
57451;PMS7003;54295;51.224;-0.164;2022-09-09T02:58:18;3;3;
57451;PMS7003;54295;51.224;-0.164;2022-09-09T03:00:46;3;2;
57451;PMS7003;54295;51.224;-0.164;2022-09-09T03:03:15;3;2;
57451;PMS7003;54295;51.224;-0.164;2022-09-09T03:05:43;3;3;
57451;PMS7003;54295;51.224;-0.164;2022-09-09T03:08:11;3;3;
57451;PMS7003;54295;51.224;-0.164;2022-09-09T03:10:39;4;3;
57451;PMS7003;54295;51.224;-0.164;2022-09-09T03:13:06;3;2;
57451;PMS7003;54295;51.224;-0.164;2022-09-09T03:15:33;3;2;
57451;PMS7003;54295;51.224;-0.164;2022-09-09T03:18:01;3;3;
57451;PMS7003;54295;51.224;-0.164;2022-09-09T03:20:29;3;3;
57451;PMS7003;54295;51.224;-0.164;2022-09-09T03:22:57;1;1;
57451;PMS7003;54295;51.224;-0.164;2022-09-09T03:25:25;5;4;
57451;PMS7003;54295;51.224;-0.164;2022-09-09T03:27:52;4;4;
57451;PMS7003;54295;51.224;-0.164;2022-09-09T03:30:21;2;2;
57451;PMS7003;54295;51.224;-0.164;2022-09-09T03:32:49;3;3;
57451;PMS7003;54295;51.224;-0.164;2022-09-09T03:35:16;3;3;
57451;PMS7003;54295;51.224;-0.164;2022-09-09T03:37:43;3;2;
57451;PMS7003;54295;51.224;-0.164;2022-09-09T03:40:10;2;2;
57451;PMS7003;54295;51.224;-0.164;2022-09-09T03:42:39;3;3;
57451;PMS7003;54295;51.224;-0.164;2022-09-09T03:45:08;2;2;
57451;PMS7003;54295;51.224;-0.164;2022-09-09T03:47:36;4;3;
57451;PMS7003;54295;51.224;-0.164;2022-09-09T03:50:03;3;2;
57451;PMS7003;54295;51.224;-0.164;2022-09-09T03:52:31;3;3;
57451;PMS7003;54295;51.224;-0.164;2022-09-09T03:55:00;3;3;
57451;PMS7003;54295;51.224;-0.164;2022-09-09T03:57:27;3;3;
57451;PMS7003;54295;51.224;-0.164;2022-09-09T03:59:54;3;3;
57451;PMS7003;54295;51.224;-0.164;2022-09-09T04:02:21;3;3;
57451;PMS7003;54295;51.224;-0.164;2022-09-09T04:04:48;5;5;
57451;PMS7003;54295;51.224;-0.164;2022-09-09T04:07:15;4;4;
57451;PMS7003;54295;51.224;-0.164;2022-09-09T04:09:43;2;2;
57451;PMS7003;54295;51.224;-0.164;2022-09-09T04:12:10;4;4;
57451;PMS7003;54295;51.224;-0.164;2022-09-09T04:14:37;6;4;
57451;PMS7003;54295;51.224;-0.164;2022-09-09T04:17:04;2;2;
57451;PMS7003;54295;51.224;-0.164;2022-09-09T04:19:31;4;4;
57451;PMS7003;54295;51.224;-0.164;2022-09-09T04:21:58;1;1;
57451;PMS7003;54295;51.224;-0.164;2022-09-09T04:24:25;3;3;
57451;PMS7003;54295;51.224;-0.164;2022-09-09T04:26:52;4;3;
57451;PMS7003;54295;51.224;-0.164;2022-09-09T04:29:19;6;6;
57451;PMS7003;54295;51.224;-0.164;2022-09-09T04:31:46;5;4;
57451;PMS7003;54295;51.224;-0.164;2022-09-09T04:34:13;4;4;
57451;PMS7003;54295;51.224;-0.164;2022-09-09T04:36:40;5;5;
57451;PMS7003;54295;51.224;-0.164;2022-09-09T04:39:07;3;3;
57451;PMS7003;54295;51.224;-0.164;2022-09-09T04:41:34;8;6;
57451;PMS7003;54295;51.224;-0.164;2022-09-09T04:44:02;5;4;
57451;PMS7003;54295;51.224;-0.164;2022-09-09T04:46:29;6;6;
57451;PMS7003;54295;51.224;-0.164;2022-09-09T04:48:56;5;5;
57451;PMS7003;54295;51.224;-0.164;2022-09-09T04:51:23;6;6;
57451;PMS7003;54295;51.224;-0.164;2022-09-09T04:53:50;6;5;
57451;PMS7003;54295;51.224;-0.164;2022-09-09T04:56:17;5;4;
57451;PMS7003;54295;51.224;-0.164;2022-09-09T04:58:44;5;5;
57451;PMS7003;54295;51.224;-0.164;2022-09-09T05:01:12;5;5;
57451;PMS7003;54295;51.224;-0.164;2022-09-09T05:03:40;7;7;
57451;PMS7003;54295;51.224;-0.164;2022-09-09T05:06:08;6;6;
57451;PMS7003;54295;51.224;-0.164;2022-09-09T05:08:37;6;6;
57451;PMS7003;54295;51.224;-0.164;2022-09-09T05:11:12;5;5;
57451;PMS7003;54295;51.224;-0.164;2022-09-09T05:13:40;5;5;
57451;PMS7003;54295;51.224;-0.164;2022-09-09T05:16:07;5;5;
57451;PMS7003;54295;51.224;-0.164;2022-09-09T05:18:35;4;4;
57451;PMS7003;54295;51.224;-0.164;2022-09-09T05:21:02;6;5;
57451;PMS7003;54295;51.224;-0.164;2022-09-09T05:23:29;7;6;
57451;PMS7003;54295;51.224;-0.164;2022-09-09T05:25:56;7;6;
57451;PMS7003;54295;51.224;-0.164;2022-09-09T05:28:24;6;6;
57451;PMS7003;54295;51.224;-0.164;2022-09-09T05:30:56;9;5;
57451;PMS7003;54295;51.224;-0.164;2022-09-09T05:33:24;6;6;
57451;PMS7003;54295;51.224;-0.164;2022-09-09T05:35:54;7;6;
57451;PMS7003;54295;51.224;-0.164;2022-09-09T05:38:23;6;6;
57451;PMS7003;54295;51.224;-0.164;2022-09-09T05:40:50;7;7;
57451;PMS7003;54295;51.224;-0.164;2022-09-09T05:43:18;6;6;
57451;PMS7003;54295;51.224;-0.164;2022-09-09T05:45:45;7;6;
57451;PMS7003;54295;51.224;-0.164;2022-09-09T05:48:12;8;7;
57451;PMS7003;54295;51.224;-0.164;2022-09-09T05:50:39;8;8;
57451;PMS7003;54295;51.224;-0.164;2022-09-09T05:53:06;7;7;
57451;PMS7003;54295;51.224;-0.164;2022-09-09T05:55:33;9;8;
57451;PMS7003;54295;51.224;-0.164;2022-09-09T05:58:00;7;6;
57451;PMS7003;54295;51.224;-0.164;2022-09-09T06:00:27;6;5;
57451;PMS7003;54295;51.224;-0.164;2022-09-09T06:02:54;5;5;
57451;PMS7003;54295;51.224;-0.164;2022-09-09T06:05:22;6;6;
57451;PMS7003;54295;51.224;-0.164;2022-09-09T06:07:52;8;8;
57451;PMS7003;54295;51.224;-0.164;2022-09-09T06:10:19;9;9;
57451;PMS7003;54295;51.224;-0.164;2022-09-09T06:12:46;9;8;
57451;PMS7003;54295;51.224;-0.164;2022-09-09T06:15:13;11;9;
57451;PMS7003;54295;51.224;-0.164;2022-09-09T06:17:40;9;9;
57451;PMS7003;54295;51.224;-0.164;2022-09-09T06:20:07;10;7;
57451;PMS7003;54295;51.224;-0.164;2022-09-09T06:22:35;8;8;
57451;PMS7003;54295;51.224;-0.164;2022-09-09T06:25:02;10;9;
57451;PMS7003;54295;51.224;-0.164;2022-09-09T06:27:30;12;10;
57451;PMS7003;54295;51.224;-0.164;2022-09-09T06:29:57;8;7;
57451;PMS7003;54295;51.224;-0.164;2022-09-09T06:32:24;10;8;
57451;PMS7003;54295;51.224;-0.164;2022-09-09T06:34:51;11;9;
57451;PMS7003;54295;51.224;-0.164;2022-09-09T06:37:18;8;8;
57451;PMS7003;54295;51.224;-0.164;2022-09-09T06:39:45;11;10;
57451;PMS7003;54295;51.224;-0.164;2022-09-09T06:42:12;10;8;
57451;PMS7003;54295;51.224;-0.164;2022-09-09T06:44:39;9;8;
57451;PMS7003;54295;51.224;-0.164;2022-09-09T06:47:06;8;8;
57451;PMS7003;54295;51.224;-0.164;2022-09-09T06:49:34;10;10;
57451;PMS7003;54295;51.224;-0.164;2022-09-09T06:52:01;8;6;
57451;PMS7003;54295;51.224;-0.164;2022-09-09T06:54:28;11;10;
57451;PMS7003;54295;51.224;-0.164;2022-09-09T06:56:54;10;10;
57451;PMS7003;54295;51.224;-0.164;2022-09-09T06:59:22;8;8;
57451;PMS7003;54295;51.224;-0.164;2022-09-09T07:01:49;9;8;
57451;PMS7003;54295;51.224;-0.164;2022-09-09T07:04:16;7;7;
57451;PMS7003;54295;51.224;-0.164;2022-09-09T07:06:44;11;10;
57451;PMS7003;54295;51.224;-0.164;2022-09-09T07:09:12;8;8;
57451;PMS7003;54295;51.224;-0.164;2022-09-09T07:11:41;9;9;
57451;PMS7003;54295;51.224;-0.164;2022-09-09T07:14:10;10;9;
57451;PMS7003;54295;51.224;-0.164;2022-09-09T07:16:38;11;9;
57451;PMS7003;54295;51.224;-0.164;2022-09-09T07:19:05;12;11;
57451;PMS7003;54295;51.224;-0.164;2022-09-09T07:21:33;10;10;
57451;PMS7003;54295;51.224;-0.164;2022-09-09T07:24:00;10;10;
57451;PMS7003;54295;51.224;-0.164;2022-09-09T07:26:29;10;9;
57451;PMS7003;54295;51.224;-0.164;2022-09-09T07:28:56;12;10;
57451;PMS7003;54295;51.224;-0.164;2022-09-09T07:31:24;7;7;
57451;PMS7003;54295;51.224;-0.164;2022-09-09T07:33:53;9;9;
57451;PMS7003;54295;51.224;-0.164;2022-09-09T07:36:21;9;9;
57451;PMS7003;54295;51.224;-0.164;2022-09-09T07:38:50;10;9;
57451;PMS7003;54295;51.224;-0.164;2022-09-09T07:41:19;11;9;
57451;PMS7003;54295;51.224;-0.164;2022-09-09T07:43:48;9;9;
57451;PMS7003;54295;51.224;-0.164;2022-09-09T07:46:17;8;7;
57451;PMS7003;54295;51.224;-0.164;2022-09-09T07:48:45;7;7;
57451;PMS7003;54295;51.224;-0.164;2022-09-09T07:51:13;7;7;
57451;PMS7003;54295;51.224;-0.164;2022-09-09T07:53:42;9;7;
57451;PMS7003;54295;51.224;-0.164;2022-09-09T07:56:11;5;5;
57451;PMS7003;54295;51.224;-0.164;2022-09-09T07:58:40;7;7;
57451;PMS7003;54295;51.224;-0.164;2022-09-09T08:01:09;6;6;
57451;PMS7003;54295;51.224;-0.164;2022-09-09T08:03:38;9;9;
57451;PMS7003;54295;51.224;-0.164;2022-09-09T08:06:06;6;6;
57451;PMS7003;54295;51.224;-0.164;2022-09-09T08:08:35;4;4;
57451;PMS7003;54295;51.224;-0.164;2022-09-09T08:11:03;6;6;
57451;PMS7003;54295;51.224;-0.164;2022-09-09T08:13:32;6;5;
57451;PMS7003;54295;51.224;-0.164;2022-09-09T08:16:04;5;4;
57451;PMS7003;54295;51.224;-0.164;2022-09-09T08:18:33;7;7;
57451;PMS7003;54295;51.224;-0.164;2022-09-09T08:21:09;6;6;
57451;PMS7003;54295;51.224;-0.164;2022-09-09T08:23:38;7;7;
57451;PMS7003;54295;51.224;-0.164;2022-09-09T08:26:09;5;5;
57451;PMS7003;54295;51.224;-0.164;2022-09-09T08:28:38;6;6;
57451;PMS7003;54295;51.224;-0.164;2022-09-09T08:31:06;6;6;
57451;PMS7003;54295;51.224;-0.164;2022-09-09T08:33:33;4;4;
57451;PMS7003;54295;51.224;-0.164;2022-09-09T08:36:01;6;6;
57451;PMS7003;54295;51.224;-0.164;2022-09-09T08:38:28;4;4;
57451;PMS7003;54295;51.224;-0.164;2022-09-09T08:40:56;5;5;
57451;PMS7003;54295;51.224;-0.164;2022-09-09T08:43:30;4;4;
57451;PMS7003;54295;51.224;-0.164;2022-09-09T08:45:59;6;5;
57451;PMS7003;54295;51.224;-0.164;2022-09-09T08:48:38;7;6;
57451;PMS7003;54295;51.224;-0.164;2022-09-09T08:51:15;7;7;
57451;PMS7003;54295;51.224;-0.164;2022-09-09T08:53:43;7;7;
57451;PMS7003;54295;51.224;-0.164;2022-09-09T08:56:16;5;5;
57451;PMS7003;54295;51.224;-0.164;2022-09-09T08:58:46;6;5;
57451;PMS7003;54295;51.224;-0.164;2022-09-09T09:01:19;7;7;
57451;PMS7003;54295;51.224;-0.164;2022-09-09T09:03:59;9;8;
57451;PMS7003;54295;51.224;-0.164;2022-09-09T09:06:36;7;7;
57451;PMS7003;54295;51.224;-0.164;2022-09-09T09:09:13;10;9;
57451;PMS7003;54295;51.224;-0.164;2022-09-09T09:11:45;9;8;
57451;PMS7003;54295;51.224;-0.164;2022-09-09T09:14:17;9;8;
57451;PMS7003;54295;51.224;-0.164;2022-09-09T09:16:48;8;7;
57451;PMS7003;54295;51.224;-0.164;2022-09-09T09:19:20;11;10;
57451;PMS7003;54295;51.224;-0.164;2022-09-09T09:21:48;9;8;
57451;PMS7003;54295;51.224;-0.164;2022-09-09T09:24:20;9;9;
57451;PMS7003;54295;51.224;-0.164;2022-09-09T09:26:53;9;9;
57451;PMS7003;54295;51.224;-0.164;2022-09-09T09:29:21;11;10;
57451;PMS7003;54295;51.224;-0.164;2022-09-09T09:31:52;12;12;
57451;PMS7003;54295;51.224;-0.164;2022-09-09T09:34:21;10;8;
57451;PMS7003;54295;51.224;-0.164;2022-09-09T09:36:52;11;10;
57451;PMS7003;54295;51.224;-0.164;2022-09-09T09:39:22;8;8;
57451;PMS7003;54295;51.224;-0.164;2022-09-09T09:41:51;9;8;
57451;PMS7003;54295;51.224;-0.164;2022-09-09T09:44:22;10;9;
57451;PMS7003;54295;51.224;-0.164;2022-09-09T09:46:51;12;11;
57451;PMS7003;54295;51.224;-0.164;2022-09-09T09:49:19;9;9;
57451;PMS7003;54295;51.224;-0.164;2022-09-09T09:51:46;10;10;
57451;PMS7003;54295;51.224;-0.164;2022-09-09T09:54:15;14;12;
57451;PMS7003;54295;51.224;-0.164;2022-09-09T09:56:49;10;9;
57451;PMS7003;54295;51.224;-0.164;2022-09-09T09:59:21;9;9;
57451;PMS7003;54295;51.224;-0.164;2022-09-09T10:01:50;11;9;
57451;PMS7003;54295;51.224;-0.164;2022-09-09T10:04:18;11;11;
57451;PMS7003;54295;51.224;-0.164;2022-09-09T10:06:46;11;11;
57451;PMS7003;54295;51.224;-0.164;2022-09-09T10:09:22;13;11;
57451;PMS7003;54295;51.224;-0.164;2022-09-09T10:11:52;13;12;
57451;PMS7003;54295;51.224;-0.164;2022-09-09T10:14:26;8;8;
57451;PMS7003;54295;51.224;-0.164;2022-09-09T10:17:05;9;9;
57451;PMS7003;54295;51.224;-0.164;2022-09-09T10:19:40;8;8;
57451;PMS7003;54295;51.224;-0.164;2022-09-09T10:22:21;8;8;
57451;PMS7003;54295;51.224;-0.164;2022-09-09T10:24:56;9;8;
57451;PMS7003;54295;51.224;-0.164;2022-09-09T10:27:32;9;9;
57451;PMS7003;54295;51.224;-0.164;2022-09-09T10:30:10;9;9;
57451;PMS7003;54295;51.224;-0.164;2022-09-09T10:32:45;6;6;
57451;PMS7003;54295;51.224;-0.164;2022-09-09T10:35:19;5;5;
57451;PMS7003;54295;51.224;-0.164;2022-09-09T10:37:58;5;5;
57451;PMS7003;54295;51.224;-0.164;2022-09-09T10:40:38;7;6;
57451;PMS7003;54295;51.224;-0.164;2022-09-09T10:43:12;6;5;
57451;PMS7003;54295;51.224;-0.164;2022-09-09T10:45:49;5;5;
57451;PMS7003;54295;51.224;-0.164;2022-09-09T10:48:28;10;9;
57451;PMS7003;54295;51.224;-0.164;2022-09-09T10:51:08;8;7;
57451;PMS7003;54295;51.224;-0.164;2022-09-09T10:53:46;5;4;
57451;PMS7003;54295;51.224;-0.164;2022-09-09T10:56:24;5;5;
57451;PMS7003;54295;51.224;-0.164;2022-09-09T10:58:54;5;4;
57451;PMS7003;54295;51.224;-0.164;2022-09-09T11:01:28;6;6;
57451;PMS7003;54295;51.224;-0.164;2022-09-09T11:04:00;8;8;
57451;PMS7003;54295;51.224;-0.164;2022-09-09T11:06:34;6;5;
57451;PMS7003;54295;51.224;-0.164;2022-09-09T11:09:08;8;8;
57451;PMS7003;54295;51.224;-0.164;2022-09-09T11:11:44;6;5;
57451;PMS7003;54295;51.224;-0.164;2022-09-09T11:14:19;6;6;
57451;PMS7003;54295;51.224;-0.164;2022-09-09T11:16:53;6;6;
57451;PMS7003;54295;51.224;-0.164;2022-09-09T11:19:26;5;5;
57451;PMS7003;54295;51.224;-0.164;2022-09-09T11:22:00;5;4;
57451;PMS7003;54295;51.224;-0.164;2022-09-09T11:24:31;6;6;
57451;PMS7003;54295;51.224;-0.164;2022-09-09T11:27:05;5;4;
57451;PMS7003;54295;51.224;-0.164;2022-09-09T11:29:47;3;3;
57451;PMS7003;54295;51.224;-0.164;2022-09-09T11:32:27;3;3;
57451;PMS7003;54295;51.224;-0.164;2022-09-09T11:35:11;3;3;
57451;PMS7003;54295;51.224;-0.164;2022-09-09T11:38:04;4;4;
57451;PMS7003;54295;51.224;-0.164;2022-09-09T11:40:40;4;4;
57451;PMS7003;54295;51.224;-0.164;2022-09-09T11:43:09;3;3;
57451;PMS7003;54295;51.224;-0.164;2022-09-09T11:45:38;4;4;
57451;PMS7003;54295;51.224;-0.164;2022-09-09T11:48:21;6;5;
57451;PMS7003;54295;51.224;-0.164;2022-09-09T11:50:57;4;4;
57451;PMS7003;54295;51.224;-0.164;2022-09-09T11:53:25;2;2;
57451;PMS7003;54295;51.224;-0.164;2022-09-09T11:56:00;3;3;
57451;PMS7003;54295;51.224;-0.164;2022-09-09T11:58:31;4;4;
57451;PMS7003;54295;51.224;-0.164;2022-09-09T12:01:36;2;2;
57451;PMS7003;54295;51.224;-0.164;2022-09-09T12:04:06;3;3;
57451;PMS7003;54295;51.224;-0.164;2022-09-09T12:06:42;2;2;
57451;PMS7003;54295;51.224;-0.164;2022-09-09T12:09:15;2;2;
57451;PMS7003;54295;51.224;-0.164;2022-09-09T12:11:47;5;5;
57451;PMS7003;54295;51.224;-0.164;2022-09-09T12:14:22;3;3;
57451;PMS7003;54295;51.224;-0.164;2022-09-09T12:17:09;5;4;
57451;PMS7003;54295;51.224;-0.164;2022-09-09T12:19:44;4;4;
57451;PMS7003;54295;51.224;-0.164;2022-09-09T12:22:13;1;0;
57451;PMS7003;54295;51.224;-0.164;2022-09-09T12:24:49;2;2;
57451;PMS7003;54295;51.224;-0.164;2022-09-09T12:27:26;3;3;
57451;PMS7003;54295;51.224;-0.164;2022-09-09T12:30:00;3;3;
57451;PMS7003;54295;51.224;-0.164;2022-09-09T12:32:30;3;3;
57451;PMS7003;54295;51.224;-0.164;2022-09-09T12:34:58;1;1;
57451;PMS7003;54295;51.224;-0.164;2022-09-09T12:37:32;3;3;
57451;PMS7003;54295;51.224;-0.164;2022-09-09T12:40:03;2;2;
57451;PMS7003;54295;51.224;-0.164;2022-09-09T12:42:32;1;1;
57451;PMS7003;54295;51.224;-0.164;2022-09-09T12:44:59;1;1;
57451;PMS7003;54295;51.224;-0.164;2022-09-09T12:47:32;0;0;
57451;PMS7003;54295;51.224;-0.164;2022-09-09T12:50:15;3;3;
57451;PMS7003;54295;51.224;-0.164;2022-09-09T12:52:44;3;3;
57451;PMS7003;54295;51.224;-0.164;2022-09-09T12:55:16;4;4;
57451;PMS7003;54295;51.224;-0.164;2022-09-09T12:57:46;3;3;
57451;PMS7003;54295;51.224;-0.164;2022-09-09T13:00:16;3;3;
57451;PMS7003;54295;51.224;-0.164;2022-09-09T13:02:45;3;3;
57451;PMS7003;54295;51.224;-0.164;2022-09-09T13:05:16;3;3;
57451;PMS7003;54295;51.224;-0.164;2022-09-09T13:07:45;3;3;
57451;PMS7003;54295;51.224;-0.164;2022-09-09T13:10:13;2;2;
57451;PMS7003;54295;51.224;-0.164;2022-09-09T13:12:42;1;1;
57451;PMS7003;54295;51.224;-0.164;2022-09-09T13:15:12;0;0;
57451;PMS7003;54295;51.224;-0.164;2022-09-09T13:17:49;1;0;
57451;PMS7003;54295;51.224;-0.164;2022-09-09T13:20:18;1;1;
57451;PMS7003;54295;51.224;-0.164;2022-09-09T13:22:47;1;1;
57451;PMS7003;54295;51.224;-0.164;2022-09-09T13:25:20;1;1;
57451;PMS7003;54295;51.224;-0.164;2022-09-09T13:27:54;1;1;
57451;PMS7003;54295;51.224;-0.164;2022-09-09T13:30:24;1;1;
57451;PMS7003;54295;51.224;-0.164;2022-09-09T13:33:30;1;1;
57451;PMS7003;54295;51.224;-0.164;2022-09-09T13:35:59;1;1;
57451;PMS7003;54295;51.224;-0.164;2022-09-09T13:38:29;0;0;
57451;PMS7003;54295;51.224;-0.164;2022-09-09T13:40:59;2;2;
57451;PMS7003;54295;51.224;-0.164;2022-09-09T13:43:28;2;2;
57451;PMS7003;54295;51.224;-0.164;2022-09-09T13:45:58;1;1;
57451;PMS7003;54295;51.224;-0.164;2022-09-09T13:48:26;2;2;
57451;PMS7003;54295;51.224;-0.164;2022-09-09T13:50:55;2;2;
57451;PMS7003;54295;51.224;-0.164;2022-09-09T13:53:23;0;0;
57451;PMS7003;54295;51.224;-0.164;2022-09-09T13:55:50;2;2;
57451;PMS7003;54295;51.224;-0.164;2022-09-09T13:58:18;3;2;
57451;PMS7003;54295;51.224;-0.164;2022-09-09T14:00:46;2;2;
57451;PMS7003;54295;51.224;-0.164;2022-09-09T14:03:13;1;1;
57451;PMS7003;54295;51.224;-0.164;2022-09-09T14:05:40;1;1;
57451;PMS7003;54295;51.224;-0.164;2022-09-09T14:08:07;1;1;
57451;PMS7003;54295;51.224;-0.164;2022-09-09T14:10:41;0;0;
57451;PMS7003;54295;51.224;-0.164;2022-09-09T14:13:08;1;1;
57451;PMS7003;54295;51.224;-0.164;2022-09-09T14:15:35;1;1;
57451;PMS7003;54295;51.224;-0.164;2022-09-09T14:18:02;2;1;
57451;PMS7003;54295;51.224;-0.164;2022-09-09T14:20:30;2;1;
57451;PMS7003;54295;51.224;-0.164;2022-09-09T14:22:57;1;1;
57451;PMS7003;54295;51.224;-0.164;2022-09-09T14:25:24;1;1;
57451;PMS7003;54295;51.224;-0.164;2022-09-09T14:27:51;1;1;
57451;PMS7003;54295;51.224;-0.164;2022-09-09T14:30:18;2;1;
57451;PMS7003;54295;51.224;-0.164;2022-09-09T14:32:45;0;0;
57451;PMS7003;54295;51.224;-0.164;2022-09-09T14:35:12;1;1;
57451;PMS7003;54295;51.224;-0.164;2022-09-09T14:37:39;1;1;
57451;PMS7003;54295;51.224;-0.164;2022-09-09T14:40:06;0;0;
57451;PMS7003;54295;51.224;-0.164;2022-09-09T14:42:34;1;1;
57451;PMS7003;54295;51.224;-0.164;2022-09-09T14:45:01;2;1;
57451;PMS7003;54295;51.224;-0.164;2022-09-09T14:47:28;1;1;
57451;PMS7003;54295;51.224;-0.164;2022-09-09T14:49:55;1;1;
57451;PMS7003;54295;51.224;-0.164;2022-09-09T14:52:22;1;1;
57451;PMS7003;54295;51.224;-0.164;2022-09-09T14:54:49;0;0;
57451;PMS7003;54295;51.224;-0.164;2022-09-09T14:57:16;0;0;
57451;PMS7003;54295;51.224;-0.164;2022-09-09T14:59:43;2;2;
57451;PMS7003;54295;51.224;-0.164;2022-09-09T15:02:10;1;1;
57451;PMS7003;54295;51.224;-0.164;2022-09-09T15:04:37;2;2;
57451;PMS7003;54295;51.224;-0.164;2022-09-09T15:07:04;1;1;
57451;PMS7003;54295;51.224;-0.164;2022-09-09T15:09:31;2;2;
57451;PMS7003;54295;51.224;-0.164;2022-09-09T15:11:58;3;3;
57451;PMS7003;54295;51.224;-0.164;2022-09-09T15:14:25;2;2;
57451;PMS7003;54295;51.224;-0.164;2022-09-09T15:16:52;3;3;
57451;PMS7003;54295;51.224;-0.164;2022-09-09T15:19:19;4;4;
57451;PMS7003;54295;51.224;-0.164;2022-09-09T15:21:46;2;2;
57451;PMS7003;54295;51.224;-0.164;2022-09-09T15:24:13;3;3;
57451;PMS7003;54295;51.224;-0.164;2022-09-09T15:26:40;4;4;
57451;PMS7003;54295;51.224;-0.164;2022-09-09T15:29:07;3;3;
57451;PMS7003;54295;51.224;-0.164;2022-09-09T15:31:36;3;3;
57451;PMS7003;54295;51.224;-0.164;2022-09-09T15:34:04;5;3;
57451;PMS7003;54295;51.224;-0.164;2022-09-09T15:36:32;3;3;
57451;PMS7003;54295;51.224;-0.164;2022-09-09T15:39:01;2;2;
57451;PMS7003;54295;51.224;-0.164;2022-09-09T15:41:30;2;2;
57451;PMS7003;54295;51.224;-0.164;2022-09-09T15:43:58;3;3;
57451;PMS7003;54295;51.224;-0.164;2022-09-09T15:46:27;2;2;
57451;PMS7003;54295;51.224;-0.164;2022-09-09T15:48:57;2;2;
57451;PMS7003;54295;51.224;-0.164;2022-09-09T15:51:29;2;2;
57451;PMS7003;54295;51.224;-0.164;2022-09-09T15:53:56;3;2;
57451;PMS7003;54295;51.224;-0.164;2022-09-09T15:56:24;3;3;
57451;PMS7003;54295;51.224;-0.164;2022-09-09T15:58:52;2;2;
57451;PMS7003;54295;51.224;-0.164;2022-09-09T16:01:19;2;2;
57451;PMS7003;54295;51.224;-0.164;2022-09-09T16:03:46;3;2;
57451;PMS7003;54295;51.224;-0.164;2022-09-09T16:06:13;3;3;
57451;PMS7003;54295;51.224;-0.164;2022-09-09T16:08:41;2;2;
57451;PMS7003;54295;51.224;-0.164;2022-09-09T16:11:11;4;3;
57451;PMS7003;54295;51.224;-0.164;2022-09-09T16:13:40;5;5;
57451;PMS7003;54295;51.224;-0.164;2022-09-09T16:16:09;5;5;
57451;PMS7003;54295;51.224;-0.164;2022-09-09T16:18:39;3;3;
57451;PMS7003;54295;51.224;-0.164;2022-09-09T16:21:07;3;3;
57451;PMS7003;54295;51.224;-0.164;2022-09-09T16:23:39;3;3;
57451;PMS7003;54295;51.224;-0.164;2022-09-09T16:26:06;3;3;
57451;PMS7003;54295;51.224;-0.164;2022-09-09T16:28:36;3;3;
57451;PMS7003;54295;51.224;-0.164;2022-09-09T16:31:04;2;2;
57451;PMS7003;54295;51.224;-0.164;2022-09-09T16:33:31;2;2;
57451;PMS7003;54295;51.224;-0.164;2022-09-09T16:35:59;4;4;
57451;PMS7003;54295;51.224;-0.164;2022-09-09T16:38:32;3;3;
57451;PMS7003;54295;51.224;-0.164;2022-09-09T16:40:59;2;2;
57451;PMS7003;54295;51.224;-0.164;2022-09-09T16:43:26;2;2;
57451;PMS7003;54295;51.224;-0.164;2022-09-09T16:45:53;1;1;
57451;PMS7003;54295;51.224;-0.164;2022-09-09T16:48:20;1;1;
57451;PMS7003;54295;51.224;-0.164;2022-09-09T16:50:47;2;2;
57451;PMS7003;54295;51.224;-0.164;2022-09-09T16:53:14;3;3;